Spring Hill, South Carolina
Current Conditions -  °F | °C
As of 3:58 AM on Thursday 23 Oct 2014 (Local Time) from KSSC Reporting Station
Clear Clear  
Wind Chill: 43°   Ceiling: Unl
Heat Index: 46°   Visibility: 10mi
Dew Point: 43°   Wind: 5mph
Humidity: 90%   Direction: 280°W
Pressure: 30.05"   Gusts: NA
Location:  34.1106°N, 80.4967°W
Report Text: KSSC 230758Z AUTO 28004KT 10SM CLR 08/06 A3005 RMK AO2 SLP177 T00750059 $
Loading
Personal Weather Stations






























Interactive Weather Map
Tropical Storm Tracking
New forecast layout! Learn more

10-Day Weather Forecast

Advertisements
Track Severe Weather on mobile